»·PEaware :: JBU43 KRNO-KLGB

JBU43 :: KRNO-KLGB

FLIGHT INFORMATION

Flight Status: Arrived
Operator:
JetBlue Airways
More flights by this operator :: More flights under this callsign
Pilot: Jaden S. (17663)
Aircraft: AIRBUS A320
(A320)
More flights by this aircraft type
Origin: KRNO Reno/Tahoe Intl
United States
Destination: KLGB Long Beach
United States
More flights between these airports :: More routes between these airports
Route: +ZEFFR6 DARBI FRA J7 REBRG PCIFC1
File this flight plan on PilotEdge
Remarks:
Altitude:
(Current/Filed)
37,000ft
Speed:
(Current/Filed)
400kts
Departed: 04-Jan-18 12:29 PM
Arrived: 04-Jan-18 01:40 PM
Distance/Time
Traveled:
350nm/1:11
Distance/Time
To Go:
Arrived

Flight Plot

Page will automatically refresh every two minutes.

Flight plan parsing failed; only flown route is shown


Map Options




Map Legend


Flown Route
Filed Route
Departure Airport
Arrival Airport
Navaid (VOR, NDB)
Fix

Horizontal Profiles

Position Reports

Time Latitude Longitude Heading Altitude Ground
Speed
04-Jan-18 12:12 39.505887 -119.773474 180 4429ft 0kts
04-Jan-18 12:13 39.505887 -119.773474 180 4429ft 0kts
04-Jan-18 12:14 39.505887 -119.773474 180 4429ft 0kts
04-Jan-18 12:15 39.505887 -119.773474 180 4429ft 0kts
04-Jan-18 12:16 39.505887 -119.773474 180 4429ft 0kts
04-Jan-18 12:17 39.505887 -119.773474 180 4429ft 0kts
04-Jan-18 12:18 39.505887 -119.773474 180 4429ft 0kts
04-Jan-18 12:19 39.505887 -119.773474 180 4429ft 0kts
04-Jan-18 12:20 39.505887 -119.773474 180 4429ft 0kts
04-Jan-18 12:21 39.505887 -119.773474 180 4429ft 0kts
04-Jan-18 12:22 39.505887 -119.773474 180 4429ft 0kts
04-Jan-18 12:23 39.505887 -119.773474 180 4429ft 0kts
04-Jan-18 12:24 39.505887 -119.773474 180 4429ft 0kts
04-Jan-18 12:25 39.505887 -119.773474 180 4429ft 0kts
04-Jan-18 12:26 39.505887 -119.773474 180 4429ft 0kts
04-Jan-18 12:27 39.505887 -119.773474 180 4429ft 0kts
04-Jan-18 12:28 39.506415 -119.773321 237 4429ft 2kts
04-Jan-18 12:29 39.506462 -119.773067 270 4429ft 0kts
04-Jan-18 12:30 39.506522 -119.773213 301 4429ft 6kts
04-Jan-18 12:31 39.506433 -119.772696 89 4429ft 0kts
04-Jan-18 12:32 39.506963 -119.771608 359 4429ft 7kts
04-Jan-18 12:33 39.511156 -119.771596 0 4429ft 15kts
04-Jan-18 12:34 39.513481 -119.769315 138 4429ft 11kts
04-Jan-18 12:35 39.487911 -119.769315 180 4651ft 162kts
04-Jan-18 12:36 39.441742 -119.769421 180 6147ft 185kts
04-Jan-18 12:37 39.375950 -119.769629 178 7788ft 270kts
04-Jan-18 12:38 39.297635 -119.768681 179 10848ft 313kts
04-Jan-18 12:39 39.203247 -119.765086 181 13879ft 353kts
04-Jan-18 12:40 39.101466 -119.761351 182 17122ft 377kts
04-Jan-18 12:41 38.993663 -119.757329 182 19176ft 395kts
04-Jan-18 12:42 38.882320 -119.753142 182 21026ft 405kts
04-Jan-18 12:43 38.769636 -119.748876 183 23325ft 419kts
04-Jan-18 12:44 38.650462 -119.744548 183 25316ft 433kts
04-Jan-18 12:45 38.528228 -119.739844 184 27099ft 443kts
04-Jan-18 12:46 38.404308 -119.734854 184 28538ft 451kts
04-Jan-18 12:47 38.278419 -119.729926 182 29992ft 456kts
04-Jan-18 12:48 38.151986 -119.715090 182 31501ft 454kts
04-Jan-18 12:49 38.026933 -119.700385 182 32907ft 450kts
04-Jan-18 12:50 37.902867 -119.686015 182 34224ft 445kts
04-Jan-18 12:51 37.779118 -119.671846 181 35392ft 444kts
04-Jan-18 12:52 37.656318 -119.657852 181 36441ft 445kts
04-Jan-18 12:53 37.532782 -119.643798 181 37224ft 445kts
04-Jan-18 12:54 37.410077 -119.629809 181 37235ft 443kts
04-Jan-18 12:55 37.287302 -119.615346 180 37230ft 443kts
04-Jan-18 12:56 37.164060 -119.601525 181 37222ft 442kts
04-Jan-18 12:57 37.042220 -119.595047 187 37221ft 437kts
04-Jan-18 12:58 36.920158 -119.597954 187 37219ft 437kts
04-Jan-18 12:59 36.798511 -119.600429 187 37219ft 437kts
04-Jan-18 13:00 36.677198 -119.602699 186 37219ft 436kts
04-Jan-18 13:01 36.555680 -119.604881 186 37221ft 435kts
04-Jan-18 13:02 36.434553 -119.607002 186 37220ft 434kts
04-Jan-18 13:03 36.313862 -119.609084 186 37219ft 435kts
04-Jan-18 13:04 36.192853 -119.610787 188 37208ft 432kts
04-Jan-18 13:05 36.072431 -119.614085 186 37213ft 433kts
04-Jan-18 13:06 35.952047 -119.619570 194 37212ft 427kts
04-Jan-18 13:07 35.835309 -119.643925 194 37211ft 426kts
04-Jan-18 13:08 35.718208 -119.668081 194 37209ft 426kts
04-Jan-18 13:09 35.599255 -119.647527 162 37213ft 457kts
04-Jan-18 13:10 35.483390 -119.583743 161 37212ft 456kts
04-Jan-18 13:11 35.369900 -119.521212 161 37217ft 457kts
04-Jan-18 13:12 35.253383 -119.457133 161 37224ft 458kts
04-Jan-18 13:13 35.137328 -119.393484 161 37230ft 459kts
04-Jan-18 13:14 35.021290 -119.329934 161 35715ft 448kts
04-Jan-18 13:15 34.909776 -119.269046 162 33564ft 431kts
04-Jan-18 13:16 34.801135 -119.207177 158 31521ft 440kts
04-Jan-18 13:17 34.685780 -119.152347 159 29641ft 466kts
04-Jan-18 13:18 34.571304 -119.073017 156 28085ft 476kts
04-Jan-18 13:19 34.467027 -118.998500 159 26109ft 408kts
04-Jan-18 13:20 34.366353 -118.935652 156 24407ft 403kts
04-Jan-18 13:21 34.268962 -118.871970 156 22688ft 393kts
04-Jan-18 13:22 34.170587 -118.822541 166 21044ft 377kts
04-Jan-18 13:23 34.071949 -118.783800 166 19436ft 367kts
04-Jan-18 13:24 33.975755 -118.746612 165 17627ft 360kts
04-Jan-18 13:25 33.881950 -118.710332 165 16191ft 349kts
04-Jan-18 13:26 33.790481 -118.675036 165 14692ft 342kts
04-Jan-18 13:27 33.700611 -118.641637 166 12948ft 332kts
04-Jan-18 13:28 33.613050 -118.609657 158 11119ft 328kts
04-Jan-18 13:29 33.557605 -118.532977 125 10123ft 299kts
04-Jan-18 13:30 33.521747 -118.444528 97 8728ft 300kts
04-Jan-18 13:31 33.519475 -118.344808 85 7243ft 298kts
04-Jan-18 13:32 33.543029 -118.254581 68 6108ft 268kts
04-Jan-18 13:33 33.567773 -118.177097 68 4928ft 245kts
04-Jan-18 13:34 33.590906 -118.104999 67 3221ft 223kts
04-Jan-18 13:35 33.611636 -118.039746 67 3006ft 202kts
04-Jan-18 13:36 33.631592 -117.976664 67 3005ft 201kts
04-Jan-18 13:37 33.651445 -117.913819 67 3002ft 201kts
04-Jan-18 13:38 33.639217 -117.858704 169 3000ft 203kts
04-Jan-18 13:39 33.618498 -117.902338 304 2165ft 189kts
04-Jan-18 13:40 33.652607 -117.950733 313 2004ft 185kts
04-Jan-18 13:41 33.688259 -117.994763 313 2003ft 184kts
04-Jan-18 13:42 33.724408 -118.038509 313 2002ft 184kts
04-Jan-18 13:43 33.758491 -118.079646 313 1516ft 152kts
04-Jan-18 13:44 33.786271 -118.113241 313 760ft 137kts
04-Jan-18 13:45 33.813274 -118.145960 313 79ft 132kts
04-Jan-18 13:46 33.821670 -118.154821 88 74ft 0kts
04-Jan-18 13:47 33.821671 -118.154803 88 74ft 0kts
04-Jan-18 13:48 33.821671 -118.154802 88 74ft 0kts
04-Jan-18 13:49 33.821671 -118.154801 88 74ft 0kts
04-Jan-18 13:50 33.821671 -118.154800 88 74ft 0kts
04-Jan-18 13:51 33.821711 -118.151493 89 74ft 12kts
04-Jan-18 13:52 33.821680 -118.147640 97 74ft 9kts
04-Jan-18 13:53 33.819862 -118.146882 99 74ft 6kts
04-Jan-18 13:54 33.819860 -118.146308 90 74ft 0kts

Navigation Log

Ident Type
Flight plan parsing failed, navigation log unavailable